Time;durP1;ratioP1;P1;durP2;ratioP2;P2;SDS_P1;SDS_P2;PMS_P1;PMS_P2;Temp;Humidity;BMP_temperature;BMP_pressure;BME280_temperature;BME280_humidity;BME280_pressure;Samples;Min_cycle;Max_cycle;Signal;HPM_P1;HPM_P2
2022/11/18 11:38:17;;;;;;;49.63;35.65;;;332.90;2329.60;;;;;;6149006;22;1431686;-85
2022/11/18 11:41:06;;;;;;;51.55;37.03;;;307.80;2304.00;;;;;;6240876;23;20008;-83
2022/11/18 11:43:42;;;;;;;53.35;41.85;;;308.10;2304.00;;;;;;6243434;23;20012;-83
2022/11/18 11:47:45;;;;;;;66.18;49.17;;;308.10;2304.00;;;;;;6243489;23;20083;-84
2022/11/18 11:49:48;;;;;;;167.02;131.20;;;332.80;2329.60;;;;;;6241898;23;20087;-81
2022/11/18 11:52:43;;;;;;;144.73;114.82;;;332.80;2329.60;;;;;;6244118;23;20006;-81
2022/11/18 11:55:27;;;;;;;76.15;57.80;;;332.80;2329.60;;;;;;6245733;22;20436;-82
2022/11/18 11:58:02;;;;;;;61.42;51.17;;;332.90;2329.60;;;;;;6246026;23;20071;-79
2022/11/18 12:00:34;;;;;;;69.63;53.65;;;333.10;2329.60;;;;;;6246130;22;20416;-82
2022/11/18 12:03:18;;;;;;;88.53;66.63;;;333.20;2329.60;;;;;;6244647;23;20094;-82
2022/11/18 12:05:44;;;;;;;72.43;56.40;;;333.30;2329.60;;;;;;6244572;23;20284;-82
2022/11/18 12:08:23;;;;;;;73.80;58.20;;;333.50;2329.60;;;;;;6244251;23;20004;-83
2022/11/18 12:11:12;;;;;;;72.88;55.33;;;333.60;2329.60;;;;;;6244867;23;20367;-81
2022/11/18 12:13:57;;;;;;;84.63;60.35;;;333.60;2329.60;;;;;;6244260;23;20008;-81
2022/11/18 12:16:56;;;;;;;95.47;71.75;;;333.70;2329.60;;;;;;6244666;23;20051;-82
2022/11/18 12:19:22;;;;;;;91.40;68.53;;;333.70;2329.60;;;;;;6245079;22;19992;-80
2022/11/18 12:21:48;;;;;;;105.18;81.20;;;333.70;2329.60;;;;;;6244146;23;20004;-80
2022/11/18 12:24:30;;;;;;;102.03;76.47;;;333.70;2329.60;;;;;;6244331;23;20074;-80
2022/11/18 12:27:09;;;;;;;82.22;64.13;;;333.70;2329.60;;;;;;6246435;23;20008;-82
2022/11/18 12:30:02;;;;;;;80.93;62.70;;;333.70;2329.60;;;;;;6246544;23;20000;-81
2022/11/18 12:32:35;;;;;;;85.43;64.80;;;333.70;2329.60;;;;;;6246811;22;20000;-81
2022/11/18 12:35:10;;;;;;;91.75;65.10;;;333.70;2329.60;;;;;;6246112;23;20004;-81
2022/11/18 12:37:51;;;;;;;94.13;68.03;;;333.70;2329.60;;;;;;6246147;23;20086;-81
2022/11/18 12:40:34;;;;;;;101.28;74.72;;;333.70;2329.60;;;;;;6221244;23;20007;-81
2022/11/18 12:45:44;;;;;;;117.65;90.78;;;358.40;2329.60;;;;;;6246575;23;20495;-81
2022/11/18 12:48:23;;;;;;;58.28;42.40;;;333.70;2329.60;;;;;;6220829;23;19996;-81
2022/11/18 12:50:54;;;;;;;35.92;28.40;;;358.40;2329.60;;;;;;6219949;23;20422;-81
2022/11/18 12:53:34;;;;;;;38.20;26.67;;;358.40;2329.60;;;;;;6221182;23;20035;-81
2022/11/18 12:56:29;;;;;;;34.13;25.20;;;358.50;2329.60;;;;;;6221092;23;20007;-83
2022/11/18 12:58:57;;;;;;;41.25;31.20;;;358.50;2329.60;;;;;;6246698;23;20008;-81
2022/11/18 13:01:29;;;;;;;34.50;28.15;;;358.50;2329.60;;;;;;6221147;23;20444;-82
2022/11/18 13:04:15;;;;;;;39.90;31.48;;;358.50;2048.00;;;;;;6247521;23;20126;-81
2022/11/18 13:06:42;;;;;;;52.05;33.85;;;358.50;2329.60;;;;;;6221084;23;20004;-81
2022/11/18 13:09:24;;;;;;;39.88;30.75;;;358.50;2329.60;;;;;;6217861;23;20429;-81
2022/11/18 13:11:54;;;;;;;54.83;36.75;;;358.50;2329.60;;;;;;6220622;23;20001;-81
2022/11/18 13:20:32;;;;;;;47.65;36.75;;;358.50;2329.60;;;;;;6247370;23;20038;-81
2022/11/18 13:25:48;;;;;;;43.05;34.35;;;358.50;2329.60;;;;;;6247238;23;20054;-81
2022/11/18 13:28:23;;;;;;;49.47;36.63;;;358.50;2073.60;;;;;;6220350;23;20004;-81
2022/11/18 13:31:19;;;;;;;48.88;34.67;;;358.60;1996.80;;;;;;6220504;23;20421;-82
2022/11/18 13:33:45;;;;;;;50.13;36.42;;;358.60;2329.60;;;;;;6220413;23;20008;-81
2022/11/18 13:36:41;;;;;;;54.67;40.35;;;358.60;2329.60;;;;;;6220335;23;20012;-81
2022/11/18 13:39:22;;;;;;;67.80;47.65;;;358.60;2329.60;;;;;;6235952;23;20040;-82
2022/11/18 13:42:01;;;;;;;73.20;54.47;;;358.50;2329.60;;;;;;6245775;23;20027;-81
2022/11/18 13:44:33;;;;;;;118.40;85.65;;;358.50;2329.60;;;;;;6245247;23;20042;-80
2022/11/18 13:47:30;;;;;;;107.97;82.55;;;358.40;2329.60;;;;;;6246037;23;19996;-82
2022/11/18 13:50:05;;;;;;;134.57;94.93;;;333.70;2329.60;;;;;;6188161;23;20027;-81
2022/11/18 13:52:35;;;;;;;140.70;101.82;;;333.70;2329.60;;;;;;6245399;23;20003;-81
2022/11/18 13:55:06;;;;;;;140.32;99.90;;;333.60;2329.60;;;;;;6245363;23;20094;-81
2022/11/18 13:57:34;;;;;;;127.47;90.80;;;333.60;2329.60;;;;;;6246068;23;20004;-83
2022/11/18 14:00:05;;;;;;;100.30;73.10;;;333.50;2329.60;;;;;;6245457;23;20008;-81
2022/11/18 14:02:37;;;;;;;151.38;110.75;;;333.50;2329.60;;;;;;6247293;22;20036;-82
2022/11/18 14:05:03;;;;;;;105.50;76.07;;;333.40;2329.60;;;;;;6245848;23;20012;-82
2022/11/18 14:07:32;;;;;;;150.70;112.53;;;333.40;2329.60;;;;;;6245575;23;20000;-83
2022/11/18 14:10:07;;;;;;;149.65;117.47;;;333.40;2329.60;;;;;;6247197;22;19996;-81
2022/11/18 14:12:35;;;;;;;198.65;143.50;;;333.40;2329.60;;;;;;6245860;23;19996;-82
2022/11/18 14:15:40;;;;;;;165.95;125.00;;;333.40;2329.60;;;;;;6245678;23;19996;-83
2022/11/18 14:18:24;;;;;;;192.57;143.48;;;333.40;2329.60;;;;;;6241119;22;20004;-81
2022/11/18 14:20:52;;;;;;;181.10;134.57;;;333.40;2329.60;;;;;;6245590;23;20376;-82
2022/11/18 14:23:25;;;;;;;176.52;141.55;;;333.40;2329.60;;;;;;6245592;23;20329;-78
2022/11/18 14:25:50;;;;;;;;;;;333.40;2329.60;;;;;;6246286;23;20007;-79
2022/11/18 14:28:26;;;;;;;189.80;148.18;;;333.30;2329.60;;;;;;6245423;23;19899;-81
2022/11/18 14:31:24;;;;;;;246.50;188.50;;;333.20;2329.60;;;;;;6246000;23;20046;-80
2022/11/18 14:34:20;;;;;;;244.93;185.50;;;333.20;2329.60;;;;;;6245524;23;20007;-80
2022/11/18 14:36:46;;;;;;;160.02;131.20;;;333.20;2329.60;;;;;;6245827;23;20081;-81
2022/11/18 14:39:18;;;;;;;167.63;134.02;;;333.20;2329.60;;;;;;6245425;23;20016;-81
2022/11/18 14:41:47;;;;;;;157.23;128.63;;;333.10;2329.60;;;;;;6245453;23;20205;-79
2022/11/18 14:44:13;;;;;;;181.40;144.75;;;333.10;2329.60;;;;;;6242280;23;20011;-79
2022/11/18 14:46:41;;;;;;;218.98;181.85;;;333.10;2329.60;;;;;;6244739;23;20004;-79
2022/11/18 14:49:18;;;;;;;219.25;178.15;;;333.10;2329.60;;;;;;6244911;22;20442;-78
2022/11/18 14:51:44;;;;;;;217.43;181.55;;;333.20;2329.60;;;;;;6245544;23;20417;-79
2022/11/18 14:54:13;;;;;;;319.95;267.98;;;333.20;2329.60;;;;;;6245305;23;20444;-85
2022/11/18 14:56:39;;;;;;;357.50;286.88;;;333.20;2329.60;;;;;;6244819;23;20011;-79
2022/11/18 14:59:05;;;;;;;379.20;303.65;;;333.20;2329.60;;;;;;6244882;23;20471;-80
2022/11/18 15:01:31;;;;;;;406.02;330.63;;;333.20;2329.60;;;;;;6244677;23;20091;-82
2022/11/18 15:03:56;;;;;;;417.02;330.10;;;333.20;2329.60;;;;;;6246404;23;20036;-81
2022/11/18 15:06:23;;;;;;;404.77;330.20;;;333.20;2329.60;;;;;;6245267;23;20027;-78
2022/11/18 15:08:51;;;;;;;355.23;285.55;;;333.10;2329.60;;;;;;6244882;23;20000;-79
2022/11/18 15:11:20;;;;;;;364.63;296.33;;;333.10;2329.60;;;;;;6244816;23;20003;-77
2022/11/18 15:13:46;;;;;;;297.70;245.40;;;333.10;2329.60;;;;;;6243699;23;20011;-80
2022/11/18 15:16:14;;;;;;;256.02;207.80;;;333.10;2329.60;;;;;;6244759;23;20004;-80
2022/11/18 15:18:39;;;;;;;184.05;144.35;;;333.10;2329.60;;;;;;6243723;23;20004;-81
2022/11/18 15:21:05;;;;;;;135.77;106.40;;;333.20;2329.60;;;;;;6243649;23;20365;-81
2022/11/18 15:23:31;;;;;;;125.32;94.90;;;333.20;2329.60;;;;;;6246248;23;20008;-81
2022/11/18 15:25:57;;;;;;;93.80;74.18;;;333.20;2329.60;;;;;;6244620;23;20375;-82
2022/11/18 15:28:22;;;;;;;79.57;63.25;;;333.20;2329.60;;;;;;6245031;23;20004;-83
2022/11/18 15:30:48;;;;;;;82.97;64.63;;;333.30;2329.60;;;;;;6244691;23;20087;-82
2022/11/18 15:33:14;;;;;;;123.80;98.47;;;333.20;2329.60;;;;;;6245014;23;20065;-83
2022/11/18 15:35:40;;;;;;;145.88;119.82;;;333.20;2329.60;;;;;;6244746;23;20000;-83
2022/11/18 15:38:05;;;;;;;132.63;110.65;;;333.20;2329.60;;;;;;6244244;23;20015;-79
2022/11/18 15:40:31;;;;;;;163.30;134.98;;;333.10;2329.60;;;;;;6246363;23;19996;-80
2022/11/18 15:42:57;;;;;;;170.75;141.32;;;333.20;2329.60;;;;;;6244665;23;20091;-82
2022/11/18 15:45:23;;;;;;;150.02;121.55;;;333.20;2329.60;;;;;;6243910;23;20001;-80
2022/11/18 15:47:51;;;;;;;187.52;145.93;;;333.20;2329.60;;;;;;6244510;23;20000;-79
2022/11/18 15:50:17;;;;;;;196.98;151.85;;;333.10;2329.60;;;;;;6242873;23;19997;-80
2022/11/18 15:52:43;;;;;;;167.18;137.88;;;333.10;2329.60;;;;;;6244986;23;20568;-83
2022/11/18 15:55:09;;;;;;;176.23;141.98;;;333.10;2329.60;;;;;;6244982;23;20024;-82
2022/11/18 15:57:34;;;;;;;190.68;154.85;;;333.10;2329.60;;;;;;6244870;23;20004;-82
2022/11/18 16:00:00;;;;;;;181.15;147.95;;;333.10;2329.60;;;;;;6246194;23;20058;-82
2022/11/18 16:02:26;;;;;;;156.88;123.00;;;333.10;2329.60;;;;;;6247013;23;20079;-82
2022/11/18 16:04:52;;;;;;;123.03;93.90;;;333.10;2329.60;;;;;;6247008;23;20032;-84
2022/11/18 16:07:18;;;;;;;62.22;44.40;;;333.10;2329.60;;;;;;6248917;23;19996;-82
2022/11/18 16:12:45;;;;;;;25.08;12.45;;;333.20;2329.60;;;;;;6248264;23;20046;-81
2022/11/18 16:17:57;;;;;;;19.13;11.48;;;333.50;2329.60;;;;;;6251882;23;20007;-83
2022/11/18 16:20:23;;;;;;;18.80;12.75;;;333.50;2329.60;;;;;;6252965;23;20056;-84
2022/11/18 16:22:50;;;;;;;23.20;13.60;;;333.40;2329.60;;;;;;6245082;23;20066;-80
2022/11/18 16:25:16;;;;;;;23.98;15.30;;;333.50;2329.60;;;;;;6245977;23;20460;-77
2022/11/18 16:27:42;;;;;;;32.60;21.80;;;333.50;2329.60;;;;;;6249329;23;19997;-79
2022/11/18 16:31:38;;;;;;;28.27;17.58;;;333.50;2329.60;;;;;;6247957;23;20287;-77
2022/11/18 16:32:54;;;;;;;25.77;17.67;;;333.50;2329.60;;;;;;6246802;23;20372;-78
2022/11/18 16:35:20;;;;;;;38.03;28.13;;;333.50;2329.60;;;;;;6246376;23;20074;-79
2022/11/18 16:37:46;;;;;;;87.88;61.75;;;333.50;2329.60;;;;;;6247763;23;20015;-78
2022/11/18 16:40:12;;;;;;;180.05;125.85;;;333.40;2329.60;;;;;;6220604;23;20000;-78
2022/11/18 16:42:38;;;;;;;164.25;124.55;;;333.40;2329.60;;;;;;6220688;23;20334;-77
2022/11/18 16:45:04;;;;;;;243.38;183.85;;;333.40;2329.60;;;;;;6220720;23;20058;-78
2022/11/18 16:47:30;;;;;;;185.43;138.20;;;333.50;2329.60;;;;;;6216622;23;20000;-77
2022/11/18 16:49:55;;;;;;;167.63;125.20;;;333.30;2329.60;;;;;;6216267;23;20046;-79
2022/11/18 16:52:21;;;;;;;154.90;130.50;;;333.40;2329.60;;;;;;6246913;23;20030;-78
2022/11/18 16:54:47;;;;;;;135.90;108.85;;;333.30;2329.60;;;;;;6220684;23;20012;-77
2022/11/18 16:57:13;;;;;;;174.65;148.07;;;333.40;2329.60;;;;;;6237259;22;19991;-80
2022/11/18 16:59:39;;;;;;;149.73;124.05;;;333.40;2329.60;;;;;;6275359;22;20026;-77
2022/11/18 17:02:05;;;;;;;208.00;157.82;;;333.30;2329.60;;;;;;6239463;23;20008;-78
2022/11/18 17:04:34;;;;;;;190.55;139.05;;;333.30;2329.60;;;;;;6247530;23;20004;-80
2022/11/18 17:07:00;;;;;;;147.05;108.93;;;333.30;2329.60;;;;;;6220701;23;20054;-77
2022/11/18 17:09:27;;;;;;;168.90;128.10;;;333.30;2329.60;;;;;;6220692;23;20321;-78
2022/11/18 17:11:55;;;;;;;161.25;124.03;;;333.40;2329.60;;;;;;6220563;23;20011;-77
2022/11/18 17:14:21;;;;;;;148.35;111.32;;;358.50;2329.60;;;;;;6220487;23;20027;-78
2022/11/18 17:16:48;;;;;;;166.68;120.40;;;333.40;2329.60;;;;;;6221251;23;20004;-77
2022/11/18 17:19:16;;;;;;;199.73;145.57;;;333.30;2329.60;;;;;;6221160;23;20000;-79
2022/11/18 17:21:43;;;;;;;195.27;152.00;;;333.30;2329.60;;;;;;6220494;23;20000;-78
2022/11/18 17:24:10;;;;;;;247.63;183.60;;;333.30;2329.60;;;;;;6220823;23;20012;-79
2022/11/18 17:26:36;;;;;;;209.68;153.98;;;333.30;2329.60;;;;;;6247558;23;20000;-79
2022/11/18 17:29:02;;;;;;;172.95;133.80;;;333.20;2329.60;;;;;;6220514;23;20005;-80
2022/11/18 17:31:28;;;;;;;197.02;150.10;;;333.20;2329.60;;;;;;6220683;23;20004;-79
2022/11/18 17:33:55;;;;;;;210.63;165.73;;;333.20;2329.60;;;;;;6247132;23;20002;-78
2022/11/18 17:36:26;;;;;;;197.93;152.45;;;333.20;2329.60;;;;;;6219878;23;20058;-77
2022/11/18 17:38:54;;;;;;;196.00;154.60;;;333.20;2329.60;;;;;;6247795;23;20012;-78
2022/11/18 17:44:09;;;;;;;182.52;145.32;;;333.20;2329.60;;;;;;6247089;23;20456;-84
2022/11/18 17:46:35;;;;;;;213.00;158.25;;;333.20;2329.60;;;;;;6220900;23;20007;-83
2022/11/18 17:49:03;;;;;;;167.95;132.68;;;333.10;2329.60;;;;;;6220948;23;20000;-81
2022/11/18 17:51:29;;;;;;;163.05;129.32;;;333.20;2329.60;;;;;;6220937;23;20007;-83
2022/11/18 17:53:56;;;;;;;151.60;120.93;;;333.30;2329.60;;;;;;6220402;23;20059;-79
2022/11/18 17:56:22;;;;;;;95.40;78.47;;;333.00;2329.60;;;;;;6220167;23;20000;-78
2022/11/18 17:58:50;;;;;;;115.97;92.43;;;333.20;2329.60;;;;;;6220304;23;20332;-79
2022/11/18 18:01:17;;;;;;;100.78;82.20;;;333.20;2329.60;;;;;;6220180;23;20321;-76
2022/11/18 18:03:43;;;;;;;98.43;79.97;;;333.20;2329.60;;;;;;6219864;23;20388;-78
2022/11/18 18:06:10;;;;;;;85.72;64.28;;;333.20;2329.60;;;;;;6220432;23;20011;-77
2022/11/18 18:08:37;;;;;;;66.78;45.08;;;333.30;2329.60;;;;;;6219262;23;20004;-79
2022/11/18 18:11:11;;;;;;;72.43;48.13;;;333.30;2329.60;;;;;;6245306;23;20000;-76
2022/11/18 18:16:23;;;;;;;125.40;96.88;;;333.30;2329.60;;;;;;6246869;23;20059;-84
2022/11/18 18:18:49;;;;;;;163.02;122.40;;;333.30;2329.60;;;;;;6220427;23;20083;-83
2022/11/18 18:21:16;;;;;;;167.32;139.73;;;333.30;2329.60;;;;;;6246935;23;20047;-81
2022/11/18 18:23:42;;;;;;;146.18;113.25;;;333.20;2329.60;;;;;;6219364;23;20430;-81
2022/11/18 18:26:09;;;;;;;173.30;135.48;;;333.30;2329.60;;;;;;6246432;23;20000;-81
2022/11/18 18:28:35;;;;;;;205.77;161.85;;;333.20;2329.60;;;;;;6219862;23;20068;-81
2022/11/18 18:31:06;;;;;;;153.98;123.63;;;333.20;2329.60;;;;;;6219880;23;20000;-80
2022/11/18 18:33:35;;;;;;;159.85;127.47;;;333.20;2329.60;;;;;;6246821;23;20004;-79
2022/11/18 18:36:03;;;;;;;151.30;122.40;;;333.20;2329.60;;;;;;6219782;23;20087;-75
2022/11/18 18:38:32;;;;;;;118.95;95.35;;;333.30;2329.60;;;;;;6228620;23;20331;-76
2022/11/18 18:41:03;;;;;;;93.90;72.88;;;333.40;2329.60;;;;;;6244844;23;20011;-75
2022/11/18 18:43:29;;;;;;;85.70;66.18;;;333.40;2329.60;;;;;;6246286;22;20011;-80
2022/11/18 18:48:45;;;;;;;196.23;134.57;;;333.40;2329.60;;;;;;6245494;23;20015;-79
2022/11/18 18:51:11;;;;;;;235.35;179.70;;;333.40;2329.60;;;;;;6244293;23;20004;-79
2022/11/18 18:53:37;;;;;;;236.82;192.52;;;333.40;2329.60;;;;;;6246181;22;20083;-80
2022/11/18 18:56:03;;;;;;;247.30;201.90;;;333.40;2329.60;;;;;;6244866;23;20109;-77
2022/11/18 18:58:31;;;;;;;199.15;160.23;;;333.40;2329.60;;;;;;6244866;23;20292;-80
2022/11/18 19:01:05;;;;;;;226.25;182.13;;;333.40;2329.60;;;;;;6244509;23;20001;-78
2022/11/18 19:03:30;;;;;;;236.02;194.40;;;333.40;2329.60;;;;;;6244765;23;20004;-79
2022/11/18 19:05:56;;;;;;;209.13;169.38;;;333.40;2329.60;;;;;;6244849;23;20007;-79
2022/11/18 19:08:22;;;;;;;192.20;154.25;;;333.40;2329.60;;;;;;6246076;23;19997;-79
2022/11/18 19:10:48;;;;;;;189.68;155.45;;;333.40;2329.60;;;;;;6244554;23;20027;-79
2022/11/18 19:13:13;;;;;;;217.32;176.38;;;333.40;2329.60;;;;;;6243740;23;20005;-78
2022/11/18 19:15:41;;;;;;;175.15;141.32;;;333.40;2329.60;;;;;;6246103;23;19996;-79
2022/11/18 19:18:07;;;;;;;201.40;159.15;;;333.40;2329.60;;;;;;6243323;23;20004;-78
2022/11/18 19:20:32;;;;;;;185.07;150.82;;;333.40;2329.60;;;;;;6244941;23;20116;-78
2022/11/18 19:23:09;;;;;;;209.80;164.85;;;333.30;2329.60;;;;;;6244322;23;20004;-79
2022/11/18 19:25:35;;;;;;;189.98;150.35;;;333.40;2329.60;;;;;;6244187;23;20003;-80
2022/11/18 19:28:01;;;;;;;205.25;159.02;;;333.40;2329.60;;;;;;6244244;23;20004;-78
2022/11/18 19:30:27;;;;;;;170.98;136.70;;;333.40;2329.60;;;;;;6246189;23;20000;-78
2022/11/18 19:32:55;;;;;;;170.68;131.88;;;333.30;2329.60;;;;;;6244755;23;19996;-80
2022/11/18 19:35:21;;;;;;;171.27;137.35;;;333.30;2329.60;;;;;;6244241;23;19996;-79
2022/11/18 19:37:47;;;;;;;148.93;112.72;;;333.40;2329.60;;;;;;6244510;23;20437;-80
2022/11/18 19:40:13;;;;;;;140.27;113.40;;;333.40;2329.60;;;;;;6246482;23;20000;-80
2022/11/18 19:42:41;;;;;;;132.07;105.88;;;333.40;2329.60;;;;;;6244078;23;20000;-81
2022/11/18 19:45:09;;;;;;;232.82;183.45;;;333.30;2329.60;;;;;;6244798;23;20012;-83
2022/11/18 19:47:35;;;;;;;278.67;222.05;;;333.30;2329.60;;;;;;6244701;23;20008;-80
2022/11/18 19:50:01;;;;;;;251.20;208.77;;;333.30;2329.60;;;;;;6244150;23;19996;-80
2022/11/18 19:52:27;;;;;;;215.95;181.05;;;333.30;2329.60;;;;;;6246171;23;20004;-80
2022/11/18 19:54:53;;;;;;;278.10;230.77;;;333.30;2329.60;;;;;;6244831;23;20004;-81
2022/11/18 19:57:19;;;;;;;252.25;204.18;;;333.30;2329.60;;;;;;6244210;23;20382;-81
2022/11/18 19:59:45;;;;;;;193.35;151.30;;;333.20;2329.60;;;;;;6243713;23;20035;-82
2022/11/18 20:02:11;;;;;;;175.35;139.75;;;333.30;2329.60;;;;;;6244653;23;20031;-82
2022/11/18 20:04:37;;;;;;;173.25;139.32;;;333.30;2329.60;;;;;;6246370;22;20004;-80
2022/11/18 20:07:03;;;;;;;214.30;174.30;;;333.30;2329.60;;;;;;6245017;23;20275;-79
2022/11/18 20:09:29;;;;;;;220.95;177.48;;;333.30;2329.60;;;;;;6245970;22;20007;-81
2022/11/18 20:11:55;;;;;;;175.57;143.55;;;333.30;2329.60;;;;;;6246526;22;20429;-81
2022/11/18 20:14:21;;;;;;;241.65;201.25;;;333.30;2329.60;;;;;;6244985;23;20007;-82
2022/11/18 20:16:47;;;;;;;209.02;169.27;;;333.30;2329.60;;;;;;6244318;23;20083;-82
2022/11/18 20:19:12;;;;;;;299.80;227.00;;;333.30;2329.60;;;;;;6244889;23;20076;-82
2022/11/18 20:21:42;;;;;;;298.88;225.23;;;333.20;2329.60;;;;;;6244732;23;20038;-80
2022/11/18 20:24:13;;;;;;;304.50;235.63;;;333.20;2329.60;;;;;;6244028;23;20426;-79
2022/11/18 20:26:39;;;;;;;316.35;250.02;;;333.20;2329.60;;;;;;6244666;23;20007;-80
2022/11/18 20:29:06;;;;;;;286.75;222.45;;;333.20;2329.60;;;;;;6244632;23;20290;-79
2022/11/18 20:31:33;;;;;;;291.73;222.70;;;333.20;2329.60;;;;;;6244014;23;20050;-82
2022/11/18 20:33:59;;;;;;;299.63;225.07;;;333.20;2329.60;;;;;;6244590;23;20012;-82
2022/11/18 20:36:30;;;;;;;312.65;232.38;;;333.20;2329.60;;;;;;6244550;23;20004;-83
2022/11/18 20:38:59;;;;;;;269.63;204.43;;;333.20;2329.60;;;;;;6244258;23;20012;-83
2022/11/18 20:41:25;;;;;;;238.98;176.25;;;333.20;2329.60;;;;;;6246024;22;20004;-82
2022/11/18 20:43:51;;;;;;;221.25;166.13;;;333.20;2329.60;;;;;;6246303;22;20007;-80
2022/11/18 20:46:19;;;;;;;221.90;175.18;;;333.20;2329.60;;;;;;6246084;22;20067;-80
2022/11/18 20:48:45;;;;;;;222.15;174.52;;;333.20;2329.60;;;;;;6246584;23;20007;-81
2022/11/18 20:51:13;;;;;;;223.15;180.25;;;333.20;2329.60;;;;;;6246147;23;20326;-82
2022/11/18 20:53:41;;;;;;;216.13;172.85;;;333.20;2329.60;;;;;;6246268;23;20004;-79
2022/11/18 20:56:07;;;;;;;299.65;215.48;;;333.20;2329.60;;;;;;6246609;23;20372;-76
2022/11/18 20:58:33;;;;;;;316.33;216.23;;;333.20;2329.60;;;;;;6246009;23;19996;-80
2022/11/18 21:01:19;;;;;;;246.32;175.88;;;333.20;2329.60;;;;;;6246261;23;20003;-77
2022/11/18 21:03:53;;;;;;;236.85;172.70;;;333.20;2329.60;;;;;;6247525;22;20016;-81
2022/11/18 21:06:19;;;;;;;197.18;144.88;;;333.20;2329.60;;;;;;6245965;23;20390;-80
2022/11/18 21:08:45;;;;;;;150.55;113.25;;;333.20;2329.60;;;;;;6247614;22;20004;-79
2022/11/18 21:11:12;;;;;;;124.60;96.13;;;333.30;2329.60;;;;;;6247538;22;20076;-78
2022/11/18 21:16:24;;;;;;;136.05;96.20;;;333.30;2329.60;;;;;;6247561;23;20011;-79
2022/11/18 21:18:50;;;;;;;104.97;76.93;;;333.20;2329.60;;;;;;6246296;23;20004;-77
2022/11/18 21:24:01;;;;;;;186.98;119.50;;;333.30;2329.60;;;;;;6247396;23;20069;-77
2022/11/18 21:26:31;;;;;;;183.57;126.68;;;333.20;2329.60;;;;;;6245324;23;20008;-79
2022/11/18 21:29:00;;;;;;;202.38;136.23;;;333.20;2329.60;;;;;;6245941;23;19997;-78
2022/11/18 21:31:27;;;;;;;252.90;188.98;;;333.20;2329.60;;;;;;6245918;23;20429;-79
2022/11/18 21:33:54;;;;;;;234.18;165.27;;;333.60;2329.60;;;;;;6246993;22;20003;-79
2022/11/18 21:36:21;;;;;;;312.65;223.27;;;333.20;2329.60;;;;;;6245967;23;20004;-79
2022/11/18 21:38:47;;;;;;;321.98;246.18;;;333.20;2329.60;;;;;;6245550;23;20091;-81
2022/11/18 21:41:13;;;;;;;362.02;270.10;;;333.20;2329.60;;;;;;6245611;23;20053;-83
2022/11/18 21:43:40;;;;;;;335.05;262.88;;;333.20;2329.60;;;;;;6245659;23;20059;-77
2022/11/18 21:46:11;;;;;;;332.35;258.33;;;333.30;2329.60;;;;;;6247717;22;20011;-79
2022/11/18 21:48:37;;;;;;;261.10;203.35;;;333.10;2329.60;;;;;;6245850;23;20054;-78
2022/11/18 21:51:06;;;;;;;276.23;208.27;;;333.10;2329.60;;;;;;6246131;23;20062;-79
2022/11/18 21:53:32;;;;;;;339.10;244.27;;;333.10;2329.60;;;;;;6246063;23;20007;-80
2022/11/18 21:56:02;;;;;;;286.70;218.93;;;333.10;2329.60;;;;;;6245382;23;20058;-80
2022/11/18 21:58:28;;;;;;;256.67;198.77;;;333.20;2329.60;;;;;;6242710;23;19996;-82
2022/11/18 22:01:14;;;;;;;281.08;218.65;;;333.20;2329.60;;;;;;6245638;23;20004;-80
2022/11/18 22:03:46;;;;;;;277.52;212.15;;;333.10;2329.60;;;;;;6246653;22;20027;-80
2022/11/18 22:06:12;;;;;;;243.48;190.40;;;333.00;2329.60;;;;;;6245529;23;20004;-80
2022/11/18 22:08:39;;;;;;;212.20;163.43;;;333.00;2329.60;;;;;;6244908;23;20012;-81
2022/11/18 22:11:08;;;;;;;250.18;190.77;;;333.00;2329.60;;;;;;6246887;22;20000;-81
2022/11/18 22:13:34;;;;;;;225.25;177.30;;;333.00;2329.60;;;;;;6245440;23;20031;-81
2022/11/18 22:16:01;;;;;;;214.43;166.07;;;333.00;2329.60;;;;;;6244997;23;20000;-82
2022/11/18 22:18:31;;;;;;;238.73;187.27;;;333.00;2329.60;;;;;;6245241;23;19992;-81
2022/11/18 22:21:02;;;;;;;228.32;167.77;;;333.00;2329.60;;;;;;6245208;23;20094;-82
2022/11/18 22:23:29;;;;;;;278.15;201.15;;;333.10;2329.60;;;;;;6244698;23;20018;-82
2022/11/18 22:25:56;;;;;;;304.80;221.15;;;333.10;2329.60;;;;;;6245294;23;20058;-81
2022/11/18 22:28:22;;;;;;;227.75;168.60;;;333.00;2329.60;;;;;;6246371;22;19996;-81
2022/11/18 22:30:48;;;;;;;227.43;167.15;;;333.00;2329.60;;;;;;6244839;23;20054;-83
2022/11/18 22:33:14;;;;;;;228.27;157.95;;;333.10;2329.60;;;;;;6245079;23;20000;-84
2022/11/18 22:35:39;;;;;;;219.63;157.35;;;333.10;2329.60;;;;;;6245305;23;20422;-84
2022/11/18 22:38:05;;;;;;;230.68;171.68;;;333.10;2329.60;;;;;;6244436;23;20441;-81
2022/11/18 22:40:31;;;;;;;201.07;150.00;;;333.10;2329.60;;;;;;6246592;23;20345;-81
2022/11/18 22:42:57;;;;;;;237.35;178.85;;;333.00;2329.60;;;;;;6244865;23;20004;-82
2022/11/18 22:45:23;;;;;;;275.90;210.60;;;333.00;2329.60;;;;;;6246065;23;19992;-80
2022/11/18 22:47:49;;;;;;;247.15;197.32;;;332.80;2329.60;;;;;;6244772;23;20054;-79
2022/11/18 22:50:16;;;;;;;273.83;207.50;;;332.80;2329.60;;;;;;6246999;22;20004;-84
2022/11/18 22:52:42;;;;;;;299.00;221.85;;;332.80;2329.60;;;;;;6245020;23;20082;-80
2022/11/18 22:55:10;;;;;;;293.73;220.75;;;332.80;2329.60;;;;;;6244864;23;20008;-81
2022/11/18 22:57:36;;;;;;;318.17;241.63;;;332.80;2329.60;;;;;;6244459;23;20091;-81
2022/11/18 23:00:04;;;;;;;253.75;195.35;;;308.10;2304.00;;;;;;6246485;23;19993;-82
2022/11/18 23:02:30;;;;;;;245.27;187.43;;;308.10;2304.00;;;;;;6244869;23;20004;-82
2022/11/18 23:04:55;;;;;;;241.98;188.15;;;332.80;2329.60;;;;;;6245853;23;20382;-81
2022/11/18 23:07:21;;;;;;;203.70;155.45;;;308.10;2304.00;;;;;;6246329;23;20000;-82
2022/11/18 23:09:47;;;;;;;201.63;152.77;;;308.10;2304.00;;;;;;6245772;22;20053;-83
2022/11/18 23:14:57;;;;;;;198.23;149.60;;;308.10;2304.00;;;;;;6246031;23;20014;-82
2022/11/18 23:17:23;;;;;;;222.82;168.13;;;308.10;2304.00;;;;;;6246364;23;20067;-81
2022/11/18 23:19:48;;;;;;;218.65;158.02;;;308.00;2304.00;;;;;;6246110;22;20051;-81
2022/11/18 23:22:14;;;;;;;231.93;175.57;;;308.00;2304.00;;;;;;6246498;22;20023;-84
2022/11/18 23:24:40;;;;;;;189.70;146.48;;;308.00;2304.00;;;;;;6244944;23;20012;-83
2022/11/18 23:27:06;;;;;;;213.43;169.18;;;308.00;2304.00;;;;;;6244284;23;20000;-82
2022/11/18 23:29:32;;;;;;;234.02;185.73;;;308.00;2304.00;;;;;;6244835;23;20031;-82
2022/11/18 23:31:57;;;;;;;171.57;135.07;;;308.00;2304.00;;;;;;6244584;23;20020;-82
2022/11/18 23:34:23;;;;;;;185.88;139.45;;;308.00;2304.00;;;;;;6244443;23;20062;-82
2022/11/18 23:36:49;;;;;;;230.80;150.23;;;308.00;2304.00;;;;;;6244535;23;20004;-82
2022/11/18 23:39:15;;;;;;;245.50;146.75;;;307.90;2304.00;;;;;;6245297;22;20023;-82
2022/11/18 23:41:41;;;;;;;232.80;142.73;;;307.90;2304.00;;;;;;6219280;23;20329;-82
2022/11/18 23:44:07;;;;;;;196.70;122.90;;;307.90;2304.00;;;;;;6245674;23;20046;-81
2022/11/18 23:46:33;;;;;;;227.10;156.45;;;307.90;2304.00;;;;;;6219567;23;20318;-83
2022/11/18 23:48:59;;;;;;;232.45;158.27;;;307.80;2304.00;;;;;;6217985;23;20090;-84
2022/11/18 23:51:25;;;;;;;208.90;154.07;;;307.80;2304.00;;;;;;6220024;23;20004;-83
2022/11/18 23:53:55;;;;;;;229.43;151.45;;;307.70;2304.00;;;;;;6219652;23;20049;-82
2022/11/18 23:56:23;;;;;;;205.40;139.18;;;307.80;2304.00;;;;;;6246551;23;20096;-83
2022/11/18 23:58:51;;;;;;;216.60;155.05;;;307.80;2304.00;;;;;;6246968;23;20024;-84
